Startpagina
METAR-TAF:

METAR-TAF

Vliegvelden :

Luchthaven Damascus

Damascus, Syrië

breedte: 33-25N, lengte: 036-31E, hoogte: 608 m

Actueel weer

Dit bericht is 26 minuten geleden gemaakt, om 18:00 UTC
Wind 10 kt uit het oosten
Temperatuur 19°C
Vochtigheid 28%
Druk 1021 hPa
Zicht 10 km of meer
geen wolken onder 1500 m en geen cumulonimbus

METAR: OSDI 251800Z 10010KT CAVOK 19/M00 Q1021

Tijdstip: 21:26 (18:26 UTC)

Verwachting

Dit bericht is 14 uur en het 26 minuten geleden gemaakt, om 04:00 UTC
Verwachting geldig van 25 om 06 UTC tot 26 om 12 UTC
Wind 8 kt uit het oostzuidoosten
Zicht 10 km of meer
Weinig wolken op 3000 ft

TAF: OSDI 250400Z 2506/2612 12008KT 9999 FEW030

Waarnemingen en weersverwachtingen van meer dan 4000 vliegvelden (METAR en TAF).

De beschikbare stations zijn de gele en rode punten op de kaart.

Ga met uw muis naar het station om de naam te zien.

Klik dan om waarnemingen en weersverwachtingen te zien.

kaart wijzigen: klik op de groene knoppen met een zwart kruis om in te zoomen, op de groene knop met een streepje om uit te zoomen of op de groene pijlen voor aangrenzende kaarten.


METAR-TAF: